createdAt,value
2023-04-06T00:00:30.030Z,13.98
2023-04-06T00:03:17.472Z,16.20
2023-04-06T00:05:45.992Z,15.07
2023-04-06T00:08:14.570Z,16.20
2023-04-06T00:10:42.890Z,16.42
2023-04-06T00:13:11.538Z,15.77
2023-04-06T00:15:39.705Z,18.35
2023-04-06T00:18:08.194Z,16.77
2023-04-06T00:20:37.855Z,17.73
2023-04-06T00:23:06.455Z,16.48
2023-04-06T00:25:34.667Z,16.17
2023-04-06T00:28:04.433Z,17.60
2023-04-06T00:30:32.667Z,15.43
2023-04-06T00:33:01.740Z,12.63
2023-04-06T00:35:30.020Z,19.70
2023-04-06T00:37:59.856Z,23.85
2023-04-06T00:40:29.397Z,22.10
2023-04-06T00:42:57.878Z,24.98
2023-04-06T00:45:26.104Z,17.67
2023-04-06T00:47:54.603Z,20.60
2023-04-06T00:50:22.933Z,15.52
2023-04-06T00:52:51.509Z,21.17
2023-04-06T00:55:21.258Z,26.63
2023-04-06T00:57:50.898Z,20.67
2023-04-06T01:00:19.915Z,16.25
2023-04-06T01:02:49.153Z,21.85
2023-04-06T01:05:17.657Z,22.65
2023-04-06T01:07:46.084Z,17.48
2023-04-06T01:10:26.571Z,26.10
2023-04-06T01:12:55.056Z,25.98
2023-04-06T01:15:23.335Z,25.13
2023-04-06T01:17:51.808Z,26.90
2023-04-06T01:20:20.414Z,20.48
2023-04-06T01:22:50.291Z,20.02
2023-04-06T01:25:18.707Z,16.90
2023-04-06T01:27:47.260Z,21.48
2023-04-06T01:30:15.655Z,19.73
2023-04-06T01:32:44.252Z,18.90
2023-04-06T01:35:12.598Z,20.10
2023-04-06T01:37:42.356Z,18.02
2023-04-06T01:40:13.129Z,16.15
2023-04-06T01:42:41.567Z,19.10
2023-04-06T01:45:10.553Z,19.15
2023-04-06T01:47:39.020Z,18.80
2023-04-06T01:50:08.308Z,15.38
2023-04-06T01:52:36.880Z,14.82
2023-04-06T01:55:05.505Z,22.20
2023-04-06T01:57:35.950Z,20.88
2023-04-06T02:00:04.665Z,20.50
2023-04-06T02:02:33.247Z,32.28
2023-04-06T02:05:01.629Z,25.73
2023-04-06T02:07:30.355Z,34.38
2023-04-06T02:09:58.749Z,31.55
2023-04-06T02:12:27.361Z,25.23
2023-04-06T02:14:57.025Z,20.70
2023-04-06T02:17:25.519Z,26.63
2023-04-06T02:19:53.739Z,18.92
2023-04-06T02:22:22.278Z,25.08
2023-04-06T02:24:50.788Z,24.50
2023-04-06T02:27:19.255Z,28.30
2023-04-06T02:29:47.516Z,21.30
2023-04-06T02:32:17.341Z,27.83
2023-04-06T02:34:45.618Z,23.27
2023-04-06T02:37:14.092Z,25.15
2023-04-06T02:39:42.414Z,22.98
2023-04-06T02:42:11.095Z,22.25
2023-04-06T02:44:39.613Z,23.88
2023-04-06T02:47:08.117Z,23.10
2023-04-06T02:49:37.714Z,25.63
2023-04-06T02:52:06.193Z,28.83
2023-04-06T02:54:34.517Z,28.38
2023-04-06T02:57:03.075Z,28.05
2023-04-06T02:59:31.560Z,27.38
2023-04-06T03:02:00.746Z,28.05
2023-04-06T03:04:28.931Z,26.25
2023-04-06T03:07:01.252Z,27.67
2023-04-06T03:11:58.494Z,35.65
2023-04-06T03:14:26.666Z,27.60
2023-04-06T03:16:55.357Z,33.08
2023-04-06T03:19:23.603Z,32.15
2023-04-06T03:21:52.178Z,33.95
2023-04-06T03:24:21.730Z,31.08
2023-04-06T03:26:50.282Z,36.10
2023-04-06T03:29:18.614Z,35.83
2023-04-06T03:31:47.252Z,34.22
2023-04-06T03:34:15.587Z,28.90
2023-04-06T03:36:44.200Z,33.75
2023-04-06T03:39:12.413Z,30.65
2023-04-06T03:41:42.392Z,35.47
2023-04-06T03:44:10.703Z,31.77
2023-04-06T03:46:39.239Z,33.38
2023-04-06T03:49:07.758Z,27.17
2023-04-06T03:51:36.617Z,32.03
2023-04-06T03:54:05.041Z,31.83
2023-04-06T03:56:33.544Z,28.45
2023-04-06T03:59:03.390Z,31.48
2023-04-06T04:01:31.996Z,31.33
2023-04-06T04:04:00.530Z,31.20
2023-04-06T04:06:29.209Z,27.95
2023-04-06T04:08:57.420Z,35.08
2023-04-06T04:11:26.092Z,32.75
2023-04-06T04:13:54.331Z,29.92
2023-04-06T04:16:24.313Z,26.70
2023-04-06T04:18:52.553Z,33.55
2023-04-06T04:21:21.060Z,36.40
2023-04-06T04:23:49.330Z,36.13
2023-04-06T04:26:17.777Z,36.85
2023-04-06T04:28:45.958Z,40.35
2023-04-06T04:31:14.507Z,37.53
2023-04-06T04:33:44.059Z,34.38
2023-04-06T04:36:12.618Z,40.35
2023-04-06T04:38:40.795Z,37.55
2023-04-06T04:41:09.314Z,36.78
2023-04-06T04:43:37.470Z,37.20
2023-04-06T04:46:06.610Z,36.80
2023-04-06T04:48:35.018Z,40.08
2023-04-06T04:51:06.141Z,35.63
2023-04-06T04:53:34.631Z,37.88
2023-04-06T04:56:03.154Z,46.10
2023-04-06T04:58:31.352Z,37.83
2023-04-06T05:00:59.868Z,46.78
2023-04-06T05:03:29.094Z,36.70
2023-04-06T05:05:57.650Z,35.15
2023-04-06T05:08:27.266Z,41.88
2023-04-06T05:10:55.835Z,38.63
2023-04-06T05:13:24.017Z,40.95
2023-04-06T05:15:52.516Z,38.45
2023-04-06T05:18:20.892Z,41.38
2023-04-06T05:20:49.497Z,37.70
2023-04-06T05:23:17.723Z,39.05
2023-04-06T05:25:47.600Z,42.72
2023-04-06T05:28:16.888Z,36.95
2023-04-06T05:30:45.995Z,33.90
2023-04-06T05:33:14.357Z,39.20
2023-04-06T05:35:43.059Z,35.95
2023-04-06T05:38:11.786Z,33.60
2023-04-06T05:40:41.965Z,39.38
2023-04-06T05:43:11.787Z,39.10
2023-04-06T05:45:40.260Z,34.80
2023-04-06T05:48:08.628Z,41.72
2023-04-06T05:50:37.256Z,51.75
2023-04-06T05:53:05.745Z,37.42
2023-04-06T05:55:34.166Z,34.40
2023-04-06T05:58:02.348Z,28.15
2023-04-06T06:00:32.574Z,33.15
2023-04-06T06:03:01.093Z,27.58
2023-04-06T06:05:30.698Z,25.45
2023-04-06T06:07:59.125Z,25.75
2023-04-06T06:10:27.558Z,28.92
2023-04-06T06:12:55.796Z,32.30
2023-04-06T06:15:24.332Z,32.47
2023-04-06T06:17:53.931Z,31.00
2023-04-06T06:20:22.478Z,35.60
2023-04-06T06:22:51.075Z,29.80
2023-04-06T06:25:19.951Z,33.53
2023-04-06T06:27:48.314Z,32.33
2023-04-06T06:30:17.474Z,33.38
2023-04-06T06:32:45.830Z,34.55
2023-04-06T06:35:15.954Z,34.20
2023-04-06T06:37:44.515Z,32.42
2023-04-06T06:40:14.127Z,44.47
2023-04-06T06:42:42.422Z,35.45
2023-04-06T06:45:11.947Z,33.25
2023-04-06T06:47:40.427Z,33.00
2023-04-06T06:50:09.668Z,34.72
2023-04-06T06:52:39.221Z,29.60
2023-04-06T06:55:08.955Z,37.10
2023-04-06T06:57:37.174Z,44.60
2023-04-06T07:00:07.095Z,38.05
2023-04-06T07:02:37.527Z,36.78
2023-04-06T07:05:23.918Z,28.65
2023-04-06T07:07:57.572Z,34.47
2023-04-06T07:10:26.925Z,34.40
2023-04-06T07:12:55.169Z,33.70
2023-04-06T07:15:23.945Z,34.60
2023-04-06T07:17:53.379Z,36.20
2023-04-06T07:20:21.890Z,29.67
2023-04-06T07:22:50.564Z,38.58
2023-04-06T07:25:20.388Z,32.25
2023-04-06T07:27:49.039Z,19.55
2023-04-06T07:30:19.212Z,18.67
2023-04-06T07:32:47.416Z,19.20
2023-04-06T07:35:16.312Z,15.50
2023-04-06T07:37:44.874Z,19.52
2023-04-06T07:40:13.557Z,16.05
2023-04-06T07:42:43.640Z,17.10
2023-04-06T07:45:12.740Z,20.30
2023-04-06T07:47:41.053Z,17.63
2023-04-06T07:50:10.490Z,18.33
2023-04-06T07:52:38.884Z,10.90
2023-04-06T07:55:08.073Z,13.43
2023-04-06T07:57:36.406Z,12.52
2023-04-06T08:00:07.726Z,11.05
2023-04-06T08:02:36.046Z,11.52
2023-04-06T08:05:05.076Z,10.93
2023-04-06T08:07:33.640Z,12.30
2023-04-06T08:10:02.116Z,16.02
2023-04-06T08:12:30.891Z,9.13
2023-04-06T08:14:59.514Z,12.90
2023-04-06T08:17:31.359Z,13.10
2023-04-06T08:20:00.506Z,11.85
2023-04-06T08:22:28.850Z,15.68
2023-04-06T08:24:57.318Z,15.82
2023-04-06T08:27:25.789Z,12.77
2023-04-06T08:29:54.262Z,17.25
2023-04-06T08:32:22.467Z,16.38
2023-04-06T08:34:55.791Z,15.95
2023-04-06T08:37:24.009Z,13.85
2023-04-06T08:39:52.795Z,16.73
2023-04-06T08:42:22.792Z,23.65
2023-04-06T08:44:53.297Z,16.70
2023-04-06T08:47:24.708Z,12.27
2023-04-06T08:49:56.780Z,14.30
2023-04-06T08:52:25.307Z,15.25
2023-04-06T08:54:53.753Z,11.50
2023-04-06T08:57:22.540Z,13.77
2023-04-06T08:59:51.997Z,12.30
2023-04-06T09:02:21.278Z,13.55
2023-04-06T09:04:51.322Z,13.10
2023-04-06T09:07:21.124Z,13.27
2023-04-06T09:09:49.788Z,13.98
2023-04-06T09:12:28.609Z,13.80
2023-04-06T09:14:58.098Z,13.15
2023-04-06T09:17:27.453Z,12.70
2023-04-06T09:19:56.756Z,13.45
2023-04-06T09:22:28.032Z,14.10
2023-04-06T09:24:56.702Z,9.75
2023-04-06T09:27:33.184Z,11.82
2023-04-06T09:30:07.236Z,16.45
2023-04-06T09:32:47.455Z,14.38
2023-04-06T09:35:16.664Z,14.02
2023-04-06T09:37:46.744Z,17.15
2023-04-06T09:40:18.295Z,18.80
2023-04-06T09:42:48.405Z,12.33
2023-04-06T09:45:17.058Z,14.75
2023-04-06T09:47:47.710Z,12.30
2023-04-06T09:50:17.302Z,17.35
2023-04-06T09:52:51.158Z,10.80
2023-04-06T09:55:26.118Z,16.08
2023-04-06T09:58:00.227Z,13.43
2023-04-06T10:00:29.723Z,12.05
2023-04-06T10:03:01.814Z,10.82
2023-04-06T10:05:36.035Z,14.30
2023-04-06T10:08:09.291Z,11.70
2023-04-06T10:10:38.524Z,14.10
2023-04-06T10:13:07.026Z,17.90
2023-04-06T10:15:35.975Z,12.38
2023-04-06T10:18:04.927Z,12.95
2023-04-06T10:20:38.570Z,15.10
2023-04-06T10:23:15.142Z,11.80
2023-04-06T10:25:54.599Z,14.00
2023-04-06T10:28:22.987Z,15.48
2023-04-06T10:30:52.023Z,11.13
2023-04-06T10:33:21.481Z,11.43
2023-04-06T10:35:50.324Z,13.32
2023-04-06T10:38:22.861Z,12.13
2023-04-06T10:40:51.696Z,15.55
2023-04-06T10:43:22.033Z,16.40
2023-04-06T10:45:58.256Z,10.70
2023-04-06T10:48:27.826Z,9.98
2023-04-06T10:50:57.505Z,12.93
2023-04-06T10:53:28.258Z,12.07
2023-04-06T10:55:58.102Z,9.85
2023-04-06T10:58:27.680Z,11.18
2023-04-06T11:00:57.404Z,15.52
2023-04-06T11:03:25.869Z,10.85
2023-04-06T11:05:54.342Z,12.55
2023-04-06T11:08:28.254Z,11.60
2023-04-06T11:11:07.837Z,12.88
2023-04-06T11:13:40.706Z,10.60
2023-04-06T11:16:09.560Z,11.88
2023-04-06T11:18:38.176Z,10.35
2023-04-06T11:21:07.755Z,9.45
2023-04-06T11:23:37.427Z,15.88
2023-04-06T11:26:06.093Z,13.50
2023-04-06T11:28:34.334Z,15.93
2023-04-06T11:31:03.009Z,13.35
2023-04-06T11:33:31.466Z,11.23
2023-04-06T11:36:00.197Z,13.00
2023-04-06T11:38:28.821Z,13.32
2023-04-06T11:40:58.718Z,19.38
2023-04-06T11:43:30.400Z,13.00
2023-04-06T11:46:03.803Z,12.50
2023-04-06T11:48:32.590Z,14.13
2023-04-06T11:51:02.366Z,15.45
2023-04-06T11:53:30.970Z,16.00
2023-04-06T11:56:00.934Z,14.57
2023-04-06T11:58:29.280Z,15.18
2023-04-06T12:01:05.763Z,13.98
2023-04-06T12:03:34.096Z,17.58
2023-04-06T12:06:02.703Z,17.60
2023-04-06T12:08:31.283Z,22.67
2023-04-06T12:11:01.432Z,24.38
2023-04-06T12:13:29.589Z,24.00
2023-04-06T12:15:58.162Z,26.20
2023-04-06T12:18:26.533Z,26.48
2023-04-06T12:20:54.978Z,26.27
2023-04-06T12:23:23.535Z,20.80
2023-04-06T12:25:52.547Z,26.30
2023-04-06T12:28:24.274Z,32.05
2023-04-06T12:30:53.392Z,32.00
2023-04-06T12:33:21.665Z,32.97
2023-04-06T12:35:50.566Z,32.35
2023-04-06T12:38:18.931Z,30.40
2023-04-06T12:40:47.426Z,27.25
2023-04-06T12:43:15.841Z,27.92
2023-04-06T12:45:47.044Z,36.03
2023-04-06T12:48:15.245Z,37.95
2023-04-06T12:50:43.684Z,31.27
2023-04-06T12:53:12.163Z,28.92
2023-04-06T12:55:40.690Z,29.48
2023-04-06T12:58:08.892Z,33.47
2023-04-06T13:00:37.897Z,26.95
2023-04-06T13:03:07.871Z,33.67
2023-04-06T13:05:36.306Z,37.58
2023-04-06T13:08:04.573Z,32.75
2023-04-06T13:10:33.073Z,33.28
2023-04-06T13:13:01.276Z,40.85
2023-04-06T13:15:29.716Z,38.22
2023-04-06T13:17:58.137Z,36.03
2023-04-06T13:20:28.749Z,37.95
2023-04-06T13:22:56.926Z,33.40
2023-04-06T13:25:25.394Z,33.05
2023-04-06T13:27:54.011Z,36.00
2023-04-06T13:30:23.552Z,38.72
2023-04-06T13:32:52.070Z,40.05
2023-04-06T13:35:20.776Z,39.40
2023-04-06T13:37:52.493Z,40.53
2023-04-06T13:40:21.814Z,50.15
2023-04-06T13:42:50.051Z,52.88
2023-04-06T13:45:18.941Z,45.10
2023-04-06T13:47:47.153Z,51.28
2023-04-06T13:50:15.756Z,50.95
2023-04-06T13:52:44.002Z,44.13
2023-04-06T13:55:13.739Z,59.90
2023-04-06T13:57:42.073Z,59.70
2023-04-06T14:00:12.587Z,51.78
2023-04-06T14:02:40.851Z,47.40
2023-04-06T14:05:10.420Z,57.28
2023-04-06T14:07:38.613Z,57.03
2023-04-06T14:10:14.708Z,50.28
2023-04-06T14:12:45.857Z,58.80
2023-04-06T14:15:14.725Z,50.77
2023-04-06T14:17:42.999Z,55.13
2023-04-06T14:20:15.015Z,54.05
2023-04-06T14:22:44.004Z,50.70
2023-04-06T14:25:13.585Z,58.95
2023-04-06T14:27:41.883Z,61.00
2023-04-06T14:30:13.267Z,64.28
2023-04-06T14:32:42.952Z,63.28
2023-04-06T14:35:12.206Z,63.45
2023-04-06T14:37:40.443Z,73.72
2023-04-06T14:40:10.239Z,71.43
2023-04-06T14:42:38.638Z,58.47
2023-04-06T14:45:08.276Z,66.28
2023-04-06T14:47:37.988Z,60.83
2023-04-06T14:50:07.768Z,66.90
2023-04-06T14:52:36.383Z,80.35
2023-04-06T14:55:05.353Z,70.82
2023-04-06T14:57:34.760Z,71.72
2023-04-06T15:00:04.721Z,78.18
2023-04-06T15:02:34.975Z,105.68
2023-04-06T15:05:06.253Z,84.15
2023-04-06T15:07:34.608Z,71.75
2023-04-06T15:10:03.302Z,61.38
2023-04-06T15:12:31.778Z,66.80
2023-04-06T15:15:01.898Z,64.80
2023-04-06T15:17:30.421Z,58.72
2023-04-06T15:19:58.980Z,60.72
2023-04-06T15:22:28.634Z,65.43
2023-04-06T15:24:57.021Z,63.90
2023-04-06T15:27:25.767Z,59.78
2023-04-06T15:29:54.629Z,63.05
2023-04-06T15:32:22.876Z,57.05
2023-04-06T15:34:51.669Z,63.55
2023-04-06T15:37:20.191Z,77.15
2023-04-06T15:39:49.984Z,67.40
2023-04-06T15:42:18.534Z,72.35
2023-04-06T15:44:47.314Z,69.07
2023-04-06T15:47:15.453Z,72.63
2023-04-06T15:49:44.179Z,75.38
2023-04-06T15:52:12.447Z,87.85
2023-04-06T15:54:41.123Z,88.65
2023-04-06T15:57:10.781Z,112.55
2023-04-06T15:59:39.335Z,76.10
2023-04-06T16:02:07.606Z,88.82
2023-04-06T16:04:36.482Z,84.15
2023-04-06T16:07:04.923Z,85.18
2023-04-06T16:09:33.373Z,90.28
2023-04-06T16:12:02.192Z,84.00
2023-04-06T16:14:32.103Z,94.70
2023-04-06T16:17:00.351Z,91.75
2023-04-06T16:19:28.776Z,94.45
2023-04-06T16:21:57.706Z,85.22
2023-04-06T16:24:26.183Z,91.95
2023-04-06T16:26:54.497Z,90.22
2023-04-06T16:29:23.088Z,105.80
2023-04-06T16:31:52.773Z,95.18
2023-04-06T16:34:21.403Z,100.55
2023-04-06T16:36:49.709Z,94.90
2023-04-06T16:39:18.181Z,92.57
2023-04-06T16:41:46.639Z,99.82
2023-04-06T16:44:16.014Z,92.75
2023-04-06T16:46:45.173Z,95.05
2023-04-06T16:49:17.426Z,102.32
2023-04-06T16:51:45.683Z,112.93
2023-04-06T16:54:14.217Z,121.90
2023-04-06T16:56:42.424Z,118.82
2023-04-06T16:59:11.099Z,107.95
2023-04-06T17:01:39.614Z,116.95
2023-04-06T17:04:08.728Z,117.32
2023-04-06T17:06:38.507Z,112.18
2023-04-06T17:09:07.249Z,117.70
2023-04-06T17:11:45.938Z,121.25
2023-04-06T17:14:15.930Z,114.75
2023-04-06T17:16:44.238Z,112.07
2023-04-06T17:19:12.670Z,111.78
2023-04-06T17:21:42.738Z,107.05
2023-04-06T17:24:12.120Z,116.55
2023-04-06T17:26:40.439Z,108.63
2023-04-06T17:29:09.043Z,104.88
2023-04-06T17:31:37.334Z,117.82
2023-04-06T17:34:06.170Z,112.85
2023-04-06T17:36:34.610Z,116.55
2023-04-06T17:39:04.471Z,112.22
2023-04-06T17:41:34.318Z,122.75
2023-04-06T17:44:03.028Z,117.43
2023-04-06T17:46:31.338Z,110.90
2023-04-06T17:48:59.759Z,117.47
2023-04-06T17:51:28.346Z,115.07
2023-04-06T17:53:56.895Z,114.82
2023-04-06T17:56:26.418Z,116.60
2023-04-06T17:58:57.846Z,122.63
2023-04-06T18:01:26.310Z,119.97
2023-04-06T18:03:55.047Z,119.68
2023-04-06T18:06:25.663Z,104.65
2023-04-06T18:08:54.472Z,123.18
2023-04-06T18:11:23.298Z,125.28
2023-04-06T18:13:53.559Z,134.88
2023-04-06T18:16:22.454Z,144.50
2023-04-06T18:18:50.903Z,127.15
2023-04-06T18:21:19.400Z,127.25
2023-04-06T18:23:49.241Z,128.00
2023-04-06T18:26:18.866Z,125.25
2023-04-06T18:28:47.863Z,127.60
2023-04-06T18:31:17.579Z,165.88
2023-04-06T18:33:46.838Z,119.18
2023-04-06T18:36:15.797Z,134.15
2023-04-06T18:38:45.539Z,128.25
2023-04-06T18:41:13.832Z,124.68
2023-04-06T18:43:42.465Z,121.40
2023-04-06T18:46:14.469Z,114.03
2023-04-06T18:48:44.885Z,114.43
2023-04-06T18:51:12.979Z,109.88
2023-04-06T18:53:41.724Z,112.90
2023-04-06T18:56:16.622Z,121.22
2023-04-06T18:58:45.879Z,121.10
2023-04-06T19:01:22.093Z,134.07
2023-04-06T19:03:53.187Z,119.03
2023-04-06T19:06:22.345Z,121.05
2023-04-06T19:08:51.217Z,102.03
2023-04-06T19:11:19.768Z,124.63
2023-04-06T19:13:50.570Z,117.32
2023-04-06T19:16:19.251Z,128.68
2023-04-06T19:18:48.059Z,124.45
2023-04-06T19:21:17.971Z,118.00
2023-04-06T19:23:47.160Z,104.57
2023-04-06T19:26:16.314Z,125.53
2023-04-06T19:28:45.514Z,114.13
2023-04-06T19:31:15.704Z,123.65
2023-04-06T19:33:45.318Z,110.18
2023-04-06T19:36:13.677Z,117.25
2023-04-06T19:38:43.567Z,102.28
2023-04-06T19:41:11.790Z,111.22
2023-04-06T19:43:40.360Z,118.32
2023-04-06T19:46:09.286Z,116.82
2023-04-06T19:48:37.845Z,104.18
2023-04-06T19:51:06.868Z,102.00
2023-04-06T19:53:35.778Z,98.80
2023-04-06T19:56:05.307Z,94.65
2023-04-06T19:58:33.871Z,92.47
2023-04-06T20:01:04.248Z,98.60
2023-04-06T20:03:32.935Z,99.53
2023-04-06T20:06:01.413Z,103.13
2023-04-06T20:08:30.150Z,106.70
2023-04-06T20:11:02.767Z,106.32
2023-04-06T20:13:32.669Z,113.13
2023-04-06T20:16:01.136Z,118.85
2023-04-06T20:18:29.515Z,115.65
2023-04-06T20:20:57.930Z,112.95
2023-04-06T20:23:26.309Z,120.78
2023-04-06T20:25:54.418Z,122.28
2023-04-06T20:28:23.872Z,127.80
2023-04-06T20:30:54.494Z,132.15
2023-04-06T20:33:24.238Z,127.30
2023-04-06T20:35:58.312Z,140.60
2023-04-06T20:38:33.285Z,143.73
2023-04-06T20:41:02.552Z,138.02
2023-04-06T20:44:15.277Z,155.50
2023-04-06T20:46:21.373Z,153.60
2023-04-06T20:48:49.982Z,168.52
2023-04-06T20:51:23.138Z,169.27
2023-04-06T20:53:53.017Z,166.65
2023-04-06T20:56:21.881Z,161.05
2023-04-06T20:58:50.553Z,144.32
2023-04-06T21:01:19.360Z,174.10
2023-04-06T21:03:49.231Z,163.13
2023-04-06T21:06:17.418Z,181.55
2023-04-06T21:08:45.936Z,174.95
2023-04-06T21:11:14.262Z,179.32
2023-04-06T21:13:42.689Z,170.75
2023-04-06T21:16:11.391Z,165.57
2023-04-06T21:18:40.231Z,149.80
2023-04-06T21:21:09.787Z,166.00
2023-04-06T21:23:38.405Z,166.07
2023-04-06T21:26:06.666Z,164.95
2023-04-06T21:28:35.100Z,163.80
2023-04-06T21:31:07.964Z,164.98
2023-04-06T21:33:36.456Z,159.13
2023-04-06T21:36:09.518Z,153.80
2023-04-06T21:38:38.867Z,144.23
2023-04-06T21:41:07.507Z,148.40
2023-04-06T21:43:36.431Z,144.30
2023-04-06T21:46:04.869Z,135.90
2023-04-06T21:48:33.578Z,140.85
2023-04-06T21:51:01.703Z,140.43
2023-04-06T21:53:31.421Z,140.63
2023-04-06T21:56:00.896Z,142.60
2023-04-06T21:58:29.331Z,135.73
2023-04-06T22:00:58.480Z,139.85
2023-04-06T22:03:27.012Z,147.63
2023-04-06T22:05:56.219Z,139.57
2023-04-06T22:08:33.382Z,134.40
2023-04-06T22:11:08.708Z,132.73
2023-04-06T22:13:37.900Z,140.43
2023-04-06T22:16:06.970Z,132.63
2023-04-06T22:18:38.093Z,129.95
2023-04-06T22:21:07.396Z,129.55
2023-04-06T22:23:41.864Z,138.95
2023-04-06T22:26:11.820Z,127.28
2023-04-06T22:28:40.922Z,137.98
2023-04-06T22:31:09.117Z,133.63
2023-04-06T22:33:37.501Z,115.10
2023-04-06T22:36:06.250Z,124.28
2023-04-06T22:38:34.686Z,110.90
2023-04-06T22:41:02.789Z,120.30
2023-04-06T22:43:32.538Z,124.93
2023-04-06T22:46:00.648Z,125.53
2023-04-06T22:48:29.047Z,129.80
2023-04-06T22:50:57.309Z,124.80
2023-04-06T22:53:25.680Z,129.48
2023-04-06T22:55:53.875Z,130.20
2023-04-06T22:58:22.281Z,128.25
2023-04-06T23:00:51.936Z,128.93
2023-04-06T23:03:20.597Z,110.80
2023-04-06T23:05:48.853Z,125.93
2023-04-06T23:08:17.362Z,129.35
2023-04-06T23:10:45.485Z,113.75
2023-04-06T23:13:13.839Z,127.28
2023-04-06T23:15:41.987Z,130.48
2023-04-06T23:18:11.846Z,123.75
2023-04-06T23:20:40.981Z,130.07
2023-04-06T23:23:09.389Z,136.18
2023-04-06T23:25:37.470Z,135.70
2023-04-06T23:28:06.242Z,124.85
2023-04-06T23:30:34.397Z,137.32
2023-04-06T23:33:02.858Z,144.98
2023-04-06T23:35:32.388Z,142.35
2023-04-06T23:38:00.778Z,135.02
2023-04-06T23:40:28.873Z,122.20
2023-04-06T23:42:57.308Z,134.95
2023-04-06T23:45:25.429Z,137.15
2023-04-06T23:47:53.829Z,139.07
2023-04-06T23:50:22.173Z,129.27
2023-04-06T23:52:52.103Z,142.43
2023-04-06T23:55:20.301Z,142.48
2023-04-06T23:57:48.732Z,138.80
